Time;durP1;ratioP1;P1;durP2;ratioP2;P2;SDS_P1;SDS_P2;PMS_P1;PMS_P2;Temp;Humidity;BMP_temperature;BMP_pressure;BME280_temperature;BME280_humidity;BME280_pressure;Samples;Min_cycle;Max_cycle;Signal;HPM_P1;HPM_P2
2022/10/16 00:00:27;;;;;;;9.30;5.20;;;;;;;;;;4974158;28;20264;-75
2022/10/16 00:02:53;;;;;;;6.22;4.97;;;;;;;;;;4973940;28;20458;-76
2022/10/16 00:05:18;;;;;;;7.72;5.00;;;;;;;;;;4974102;28;20064;-75
2022/10/16 00:07:44;;;;;;;8.25;4.88;;;;;;;;;;4992142;28;20064;-74
2022/10/16 00:10:09;;;;;;;6.00;4.60;;;;;;;;;;4974597;28;20030;-75
2022/10/16 00:12:35;;;;;;;7.32;4.72;;;;;;;;;;4991985;28;20540;-75
2022/10/16 00:15:00;;;;;;;8.18;4.93;;;;;;;;;;4973624;28;20018;-75
2022/10/16 00:17:26;;;;;;;7.78;4.43;;;;;;;;;;4974031;28;20037;-76
2022/10/16 00:19:51;;;;;;;9.35;4.80;;;;;;;;;;4991439;28;20030;-75
2022/10/16 00:22:16;;;;;;;8.13;4.65;;;;;;;;;;4975187;28;20101;-76
2022/10/16 00:24:42;;;;;;;6.32;4.60;;;;;;;;;;4974375;28;20093;-75
2022/10/16 00:27:07;;;;;;;6.88;4.68;;;;;;;;;;4974400;28;20030;-76
2022/10/16 00:29:33;;;;;;;9.18;4.55;;;;;;;;;;4991458;28;20080;-75
2022/10/16 00:31:58;;;;;;;6.28;4.32;;;;;;;;;;4974240;28;20057;-76
2022/10/16 00:34:24;;;;;;;6.72;4.60;;;;;;;;;;4973962;28;20026;-75
2022/10/16 00:36:49;;;;;;;8.02;4.82;;;;;;;;;;4974626;28;20026;-75
2022/10/16 00:39:15;;;;;;;7.90;5.15;;;;;;;;;;4991943;28;20030;-76
2022/10/16 00:41:40;;;;;;;7.63;5.07;;;;;;;;;;4974181;28;20034;-74
2022/10/16 00:44:44;;;;;;;7.57;4.93;;;;;;;;;;4973843;28;20033;-75
2022/10/16 00:47:15;;;;;;;9.43;4.70;;;;;;;;;;4944468;28;20030;-75
2022/10/16 00:49:41;;;;;;;6.80;4.80;;;;;;;;;;4973872;28;20041;-75
2022/10/16 00:52:06;;;;;;;13.38;5.38;;;;;;;;;;4974306;28;20029;-75
2022/10/16 00:54:33;;;;;;;8.85;5.38;;;;;;;;;;4991077;28;20026;-76
2022/10/16 00:57:04;;;;;;;9.02;5.03;;;;;;;;;;4973470;28;20042;-75
2022/10/16 00:59:31;;;;;;;;;;;;;;;;;;4974201;28;20053;-78
2022/10/16 01:01:58;;;;;;;9.48;5.00;;;;;;;;;;4973793;28;20326;-76
2022/10/16 01:04:25;;;;;;;6.00;4.53;;;;;;;;;;4973664;28;20781;-76
2022/10/16 01:07:24;;;;;;;7.35;5.10;;;;;;;;;;4991088;28;20026;-78
2022/10/16 01:10:00;;;;;;;6.28;4.50;;;;;;;;;;4973401;28;20431;-80
2022/10/16 01:12:39;;;;;;;5.65;4.38;;;;;;;;;;4991084;28;20030;-82
2022/10/16 01:15:17;;;;;;;4.88;4.30;;;;;;;;;;4973310;28;20080;-78
2022/10/16 01:17:53;;;;;;;6.38;4.47;;;;;;;;;;4973925;28;20324;-79
2022/10/16 01:20:28;;;;;;;8.98;4.22;;;;;;;;;;4973535;28;20030;-81
2022/10/16 01:23:10;;;;;;;6.55;3.92;;;;;;;;;;4973357;28;20112;-78
2022/10/16 01:25:53;;;;;;;8.13;4.28;;;;;;;;;;4973265;28;20058;-78
2022/10/16 01:28:23;;;;;;;5.50;4.32;;;;;;;;;;4973972;28;20486;-79
2022/10/16 01:30:52;;;;;;;7.55;4.15;;;;;;;;;;4973834;28;20030;-79
2022/10/16 01:33:26;;;;;;;6.95;4.40;;;;;;;;;;4973608;28;20018;-79
2022/10/16 01:35:54;;;;;;;6.50;4.72;;;;;;;;;;4973498;28;20591;-79
2022/10/16 01:38:28;;;;;;;7.25;4.57;;;;;;;;;;4973709;28;20015;-79
2022/10/16 01:41:03;;;;;;;6.10;3.97;;;;;;;;;;4973104;28;20030;-79
2022/10/16 01:43:36;;;;;;;6.07;4.35;;;;;;;;;;4972887;28;20041;-79
2022/10/16 01:46:02;;;;;;;8.43;4.15;;;;;;;;;;4972855;28;20034;-78
2022/10/16 01:48:31;;;;;;;5.72;4.35;;;;;;;;;;4973485;28;20379;-78
2022/10/16 01:51:06;;;;;;;6.18;4.53;;;;;;;;;;4972855;28;20026;-78
2022/10/16 01:53:32;;;;;;;6.00;3.95;;;;;;;;;;4973093;28;20030;-79
2022/10/16 01:56:01;;;;;;;6.20;4.35;;;;;;;;;;4972976;28;20037;-78
2022/10/16 01:58:30;;;;;;;8.00;5.18;;;;;;;;;;4973289;28;20026;-77
2022/10/16 02:00:56;;;;;;;6.50;4.43;;;;;;;;;;4990246;28;20022;-79
2022/10/16 02:03:22;;;;;;;7.15;4.60;;;;;;;;;;4972653;28;20399;-79
2022/10/16 02:05:56;;;;;;;9.10;4.45;;;;;;;;;;4972778;28;20045;-79
2022/10/16 02:08:25;;;;;;;6.75;4.53;;;;;;;;;;4973220;28;20036;-78
2022/10/16 02:10:52;;;;;;;5.45;4.40;;;;;;;;;;4972996;28;20092;-78
2022/10/16 02:13:58;;;;;;;6.45;4.22;;;;;;;;;;4973163;28;20026;-79
2022/10/16 02:16:42;;;;;;;5.38;4.50;;;;;;;;;;4972505;28;20112;-79
2022/10/16 02:19:09;;;;;;;65.70;8.18;;;;;;;;;;4990248;28;20030;-78
2022/10/16 02:21:48;;;;;;;8.43;4.35;;;;;;;;;;4972646;28;20549;-78
2022/10/16 02:24:36;;;;;;;8.02;4.47;;;;;;;;;;4956998;28;20669;-78
2022/10/16 02:27:11;;;;;;;12.07;4.35;;;;;;;;;;4972709;28;20655;-79
2022/10/16 02:29:44;;;;;;;7.32;4.20;;;;;;;;;;4990262;28;20443;-78
2022/10/16 02:32:12;;;;;;;5.70;4.28;;;;;;;;;;4972325;28;20061;-77
2022/10/16 02:34:40;;;;;;;16.30;5.00;;;;;;;;;;4972700;28;20034;-78
2022/10/16 02:37:06;;;;;;;8.73;4.40;;;;;;;;;;4972469;28;20041;-79
2022/10/16 02:39:33;;;;;;;5.28;4.22;;;;;;;;;;4990514;28;20126;-79
2022/10/16 02:41:59;;;;;;;7.63;4.43;;;;;;;;;;4976233;28;20435;-78
2022/10/16 02:44:25;;;;;;;8.68;4.40;;;;;;;;;;4978753;28;20042;-78
2022/10/16 02:46:50;;;;;;;6.72;4.05;;;;;;;;;;4973880;28;20033;-78
2022/10/16 02:49:15;;;;;;;9.55;4.72;;;;;;;;;;4976057;28;20026;-79
2022/10/16 02:51:41;;;;;;;10.68;4.90;;;;;;;;;;4975711;28;20034;-79
2022/10/16 02:54:07;;;;;;;7.65;4.00;;;;;;;;;;4975910;28;20133;-78
2022/10/16 02:56:33;;;;;;;7.85;4.30;;;;;;;;;;4975070;28;20087;-78
2022/10/16 02:58:58;;;;;;;6.03;4.15;;;;;;;;;;4992649;28;20109;-78
2022/10/16 03:01:24;;;;;;;5.85;4.15;;;;;;;;;;4975535;28;20125;-79
2022/10/16 03:03:49;;;;;;;11.27;4.70;;;;;;;;;;4975486;28;20180;-78
2022/10/16 03:06:15;;;;;;;5.55;4.40;;;;;;;;;;4975860;28;20146;-78
2022/10/16 03:08:41;;;;;;;5.47;4.50;;;;;;;;;;4975909;28;20116;-79
2022/10/16 03:11:06;;;;;;;6.13;4.65;;;;;;;;;;4993114;28;20490;-78
2022/10/16 03:13:32;;;;;;;11.52;5.30;;;;;;;;;;4992797;28;20037;-79
2022/10/16 03:15:57;;;;;;;7.90;4.45;;;;;;;;;;4996784;28;20129;-77
2022/10/16 03:18:23;;;;;;;5.75;4.05;;;;;;;;;;5013598;28;20045;-79
2022/10/16 03:20:48;;;;;;;7.85;4.57;;;;;;;;;;4994935;28;20129;-76
2022/10/16 03:23:14;;;;;;;11.85;5.20;;;;;;;;;;4995328;28;20085;-77
2022/10/16 03:25:39;;;;;;;5.68;4.18;;;;;;;;;;4983494;28;20030;-78
2022/10/16 03:28:05;;;;;;;10.35;4.53;;;;;;;;;;4974905;28;20037;-78
2022/10/16 03:30:30;;;;;;;7.20;4.75;;;;;;;;;;4975360;28;20026;-79
2022/10/16 03:32:56;;;;;;;6.80;4.60;;;;;;;;;;4974760;28;20022;-79
2022/10/16 03:35:22;;;;;;;6.38;4.30;;;;;;;;;;4975517;28;20077;-79
2022/10/16 03:37:47;;;;;;;12.57;5.00;;;;;;;;;;4975036;28;20049;-79
2022/10/16 03:40:13;;;;;;;8.32;4.40;;;;;;;;;;4991675;28;20487;-77
2022/10/16 03:42:39;;;;;;;10.07;5.00;;;;;;;;;;4974584;28;20205;-78
2022/10/16 03:45:05;;;;;;;8.43;4.90;;;;;;;;;;4992312;28;20113;-79
2022/10/16 03:47:32;;;;;;;9.02;4.65;;;;;;;;;;4992447;28;20026;-79
2022/10/16 03:49:59;;;;;;;7.82;5.00;;;;;;;;;;4974756;28;20025;-78
2022/10/16 03:52:24;;;;;;;8.02;4.78;;;;;;;;;;4974667;28;20045;-78
2022/10/16 03:54:50;;;;;;;6.38;4.88;;;;;;;;;;4992391;28;20026;-78
2022/10/16 03:57:16;;;;;;;8.00;4.55;;;;;;;;;;4974492;28;20096;-80
2022/10/16 03:59:41;;;;;;;9.38;4.45;;;;;;;;;;4974583;28;20481;-79
2022/10/16 04:02:07;;;;;;;8.02;4.50;;;;;;;;;;4974283;28;20027;-77
2022/10/16 04:04:32;;;;;;;5.18;4.50;;;;;;;;;;4974718;28;20023;-78
2022/10/16 04:06:58;;;;;;;7.50;4.90;;;;;;;;;;4974140;28;20033;-78
2022/10/16 04:09:23;;;;;;;5.18;4.07;;;;;;;;;;4974331;28;20057;-78
2022/10/16 04:11:49;;;;;;;7.05;4.43;;;;;;;;;;4974479;28;20034;-79
2022/10/16 04:14:14;;;;;;;4.95;4.45;;;;;;;;;;4974464;28;20046;-79
2022/10/16 04:16:40;;;;;;;5.60;3.95;;;;;;;;;;4974674;28;20030;-79
2022/10/16 04:19:05;;;;;;;7.10;4.10;;;;;;;;;;4991744;28;20407;-78
2022/10/16 04:21:31;;;;;;;7.78;4.30;;;;;;;;;;4991703;28;20029;-78
2022/10/16 04:23:56;;;;;;;11.35;4.07;;;;;;;;;;4974224;28;20026;-78
2022/10/16 04:26:22;;;;;;;6.35;4.10;;;;;;;;;;4973997;28;20049;-78
2022/10/16 04:28:47;;;;;;;6.50;4.85;;;;;;;;;;4991742;28;20037;-77
2022/10/16 04:31:13;;;;;;;5.88;4.18;;;;;;;;;;4973867;28;20026;-78
2022/10/16 04:33:38;;;;;;;5.88;4.10;;;;;;;;;;4991847;28;20029;-78
2022/10/16 04:36:04;;;;;;;4.85;4.18;;;;;;;;;;4991623;28;20050;-77
2022/10/16 04:38:30;;;;;;;6.22;4.80;;;;;;;;;;4992170;28;20415;-79
2022/10/16 04:40:55;;;;;;;9.68;5.65;;;;;;;;;;4973800;28;20058;-78
2022/10/16 04:43:21;;;;;;;6.97;4.90;;;;;;;;;;4973730;28;20034;-80
2022/10/16 04:45:47;;;;;;;8.85;6.28;;;;;;;;;;4974048;28;20512;-78
2022/10/16 04:48:12;;;;;;;9.65;4.75;;;;;;;;;;4991253;28;20034;-80
2022/10/16 04:50:38;;;;;;;6.18;4.85;;;;;;;;;;4973983;28;20026;-80
2022/10/16 04:53:03;;;;;;;7.22;4.72;;;;;;;;;;4973616;28;20030;-78
2022/10/16 04:55:29;;;;;;;9.30;4.75;;;;;;;;;;4973218;28;20044;-75
2022/10/16 04:57:54;;;;;;;9.27;4.10;;;;;;;;;;4971548;28;20058;-76
2022/10/16 05:00:22;;;;;;;7.68;4.45;;;;;;;;;;4973270;28;20471;-76
2022/10/16 05:02:47;;;;;;;6.38;4.68;;;;;;;;;;4972694;28;20038;-76
2022/10/16 05:05:14;;;;;;;8.30;4.68;;;;;;;;;;4972949;28;20360;-75
2022/10/16 05:07:39;;;;;;;9.30;4.32;;;;;;;;;;4990698;28;20447;-76
2022/10/16 05:10:05;;;;;;;6.85;4.72;;;;;;;;;;4972963;28;20093;-76
2022/10/16 05:12:31;;;;;;;5.15;4.10;;;;;;;;;;4973434;28;20117;-76
2022/10/16 05:14:58;;;;;;;7.43;4.47;;;;;;;;;;4973270;28;20423;-75
2022/10/16 05:17:25;;;;;;;6.25;4.28;;;;;;;;;;4991860;28;20064;-75
2022/10/16 05:19:50;;;;;;;12.32;5.05;;;;;;;;;;4973597;28;20026;-74
2022/10/16 05:22:16;;;;;;;6.75;5.43;;;;;;;;;;4972963;28;20050;-75
2022/10/16 05:24:42;;;;;;;8.00;4.57;;;;;;;;;;4991199;28;20061;-75
2022/10/16 05:27:07;;;;;;;6.60;4.70;;;;;;;;;;4973259;28;20034;-75
2022/10/16 05:29:33;;;;;;;5.03;4.05;;;;;;;;;;4973385;28;20131;-76
2022/10/16 05:31:59;;;;;;;8.70;4.18;;;;;;;;;;4974417;28;20463;-76
2022/10/16 05:34:25;;;;;;;6.22;3.92;;;;;;;;;;4974267;28;20024;-76
2022/10/16 05:36:50;;;;;;;6.55;4.30;;;;;;;;;;4991561;28;20101;-75
2022/10/16 05:39:16;;;;;;;6.63;5.38;;;;;;;;;;4990442;28;20433;-76
2022/10/16 05:41:42;;;;;;;7.32;5.45;;;;;;;;;;4973536;28;20128;-76
2022/10/16 05:44:08;;;;;;;10.27;4.72;;;;;;;;;;4973744;28;20061;-76
2022/10/16 05:46:33;;;;;;;6.60;4.57;;;;;;;;;;4990815;28;20065;-75
2022/10/16 05:48:59;;;;;;;7.68;4.80;;;;;;;;;;4991008;28;20027;-76
2022/10/16 05:51:25;;;;;;;7.38;4.78;;;;;;;;;;4973787;28;20026;-74
2022/10/16 05:53:51;;;;;;;8.70;4.57;;;;;;;;;;4973461;28;20140;-75
2022/10/16 05:56:17;;;;;;;5.60;4.38;;;;;;;;;;4972501;28;20045;-76
2022/10/16 05:58:44;;;;;;;7.85;4.07;;;;;;;;;;4972870;28;20030;-75
2022/10/16 06:01:15;;;;;;;12.23;4.97;;;;;;;;;;4972869;28;20073;-77
2022/10/16 06:03:41;;;;;;;;;;;;;;;;;;4973345;28;20030;-75
2022/10/16 06:06:08;;;;;;;8.57;3.83;;;;;;;;;;4973223;28;19909;-75
2022/10/16 06:08:34;;;;;;;5.78;3.33;;;;;;;;;;4973010;28;20112;-77
2022/10/16 06:11:04;;;;;;;3.65;3.28;;;;;;;;;;4973042;28;20022;-77
2022/10/16 06:13:30;;;;;;;5.75;3.80;;;;;;;;;;4972392;28;20030;-75
2022/10/16 06:15:58;;;;;;;10.88;4.30;;;;;;;;;;4973147;28;20532;-75
2022/10/16 06:18:24;;;;;;;7.68;4.43;;;;;;;;;;4975487;28;20062;-77
2022/10/16 06:20:50;;;;;;;3.75;3.20;;;;;;;;;;4977334;28;20030;-75
2022/10/16 06:23:15;;;;;;;6.63;3.47;;;;;;;;;;4977027;28;20057;-76
2022/10/16 06:25:41;;;;;;;6.32;3.55;;;;;;;;;;4977503;28;20030;-76
2022/10/16 06:28:06;;;;;;;4.20;3.03;;;;;;;;;;4977303;28;20033;-76
2022/10/16 06:30:32;;;;;;;7.13;3.90;;;;;;;;;;4977031;28;20057;-75
2022/10/16 06:32:57;;;;;;;5.18;3.92;;;;;;;;;;4993508;28;20438;-75
2022/10/16 06:35:23;;;;;;;5.10;3.28;;;;;;;;;;4976686;28;20029;-76
2022/10/16 06:37:49;;;;;;;7.15;3.47;;;;;;;;;;4977098;28;20137;-76
2022/10/16 06:40:14;;;;;;;6.22;3.80;;;;;;;;;;4995147;28;20038;-76
2022/10/16 06:42:41;;;;;;;5.55;3.42;;;;;;;;;;4977583;28;20085;-77
2022/10/16 06:45:07;;;;;;;4.60;3.60;;;;;;;;;;4994383;28;20030;-76
2022/10/16 06:47:32;;;;;;;7.40;3.30;;;;;;;;;;4977234;28;20366;-77
2022/10/16 06:49:58;;;;;;;4.05;3.22;;;;;;;;;;4976928;28;20515;-74
2022/10/16 06:52:23;;;;;;;4.72;3.50;;;;;;;;;;4975981;28;20073;-74
2022/10/16 06:54:49;;;;;;;6.00;4.15;;;;;;;;;;4976234;28;20026;-76
2022/10/16 06:57:16;;;;;;;5.10;3.20;;;;;;;;;;4976082;28;20121;-76
2022/10/16 06:59:41;;;;;;;5.95;3.72;;;;;;;;;;4975779;28;20030;-75
2022/10/16 07:02:09;;;;;;;7.60;3.85;;;;;;;;;;4975552;28;20081;-76
2022/10/16 07:04:36;;;;;;;3.97;3.55;;;;;;;;;;4975413;28;20525;-77
2022/10/16 07:07:01;;;;;;;4.25;2.90;;;;;;;;;;4975654;28;20034;-78
2022/10/16 07:09:27;;;;;;;3.90;2.90;;;;;;;;;;4975568;28;20056;-78
2022/10/16 07:11:53;;;;;;;7.13;3.17;;;;;;;;;;4975899;28;20439;-78
2022/10/16 07:14:21;;;;;;;6.30;3.40;;;;;;;;;;4975084;28;20026;-75
2022/10/16 07:16:48;;;;;;;8.05;3.92;;;;;;;;;;4975468;28;20030;-76
2022/10/16 07:19:15;;;;;;;4.32;2.83;;;;;;;;;;4975287;28;20033;-76
2022/10/16 07:21:41;;;;;;;7.22;3.15;;;;;;;;;;4975411;28;20109;-78
2022/10/16 07:24:12;;;;;;;4.93;3.00;;;;;;;;;;4974971;28;20034;-77
2022/10/16 07:26:42;;;;;;;7.85;3.72;;;;;;;;;;4955899;28;20431;-76
2022/10/16 07:29:14;;;;;;;9.70;3.22;;;;;;;;;;4971557;28;20586;-76
2022/10/16 07:31:40;;;;;;;7.40;3.75;;;;;;;;;;4973711;28;20558;-77
2022/10/16 07:34:06;;;;;;;5.07;3.30;;;;;;;;;;4973399;28;20479;-77
2022/10/16 07:36:32;;;;;;;7.00;2.83;;;;;;;;;;4972112;28;20153;-77
2022/10/16 07:38:57;;;;;;;5.43;2.60;;;;;;;;;;4973510;28;20173;-77
2022/10/16 07:41:23;;;;;;;4.85;2.92;;;;;;;;;;4972052;28;20030;-78
2022/10/16 07:43:51;;;;;;;4.93;3.13;;;;;;;;;;4971720;28;20030;-76
2022/10/16 07:46:17;;;;;;;3.55;2.63;;;;;;;;;;4971999;28;20170;-75
2022/10/16 07:48:46;;;;;;;6.97;2.72;;;;;;;;;;4971802;28;20037;-76
2022/10/16 07:51:14;;;;;;;10.13;2.65;;;;;;;;;;4971822;28;20042;-77
2022/10/16 07:53:39;;;;;;;6.97;3.00;;;;;;;;;;4973134;28;20224;-77
2022/10/16 07:56:07;;;;;;;6.30;2.92;;;;;;;;;;4971701;28;20054;-78
2022/10/16 07:58:33;;;;;;;5.45;3.17;;;;;;;;;;4972560;28;20105;-75
2022/10/16 08:01:02;;;;;;;5.13;3.00;;;;;;;;;;4972436;28;20137;-77
2022/10/16 08:03:28;;;;;;;6.88;3.88;;;;;;;;;;4973065;28;20034;-75
2022/10/16 08:05:54;;;;;;;3.53;3.20;;;;;;;;;;4971446;28;20399;-76
2022/10/16 08:08:20;;;;;;;2.90;2.60;;;;;;;;;;4972443;28;20533;-75
2022/10/16 08:10:47;;;;;;;3.05;2.75;;;;;;;;;;4971307;28;20634;-75
2022/10/16 08:13:14;;;;;;;7.68;3.17;;;;;;;;;;4972645;28;20082;-77
2022/10/16 08:15:45;;;;;;;3.28;2.85;;;;;;;;;;4971426;28;20041;-75
2022/10/16 08:18:13;;;;;;;3.95;3.22;;;;;;;;;;4971839;28;20491;-75
2022/10/16 08:20:40;;;;;;;3.25;2.72;;;;;;;;;;4955738;28;20081;-77
2022/10/16 08:23:06;;;;;;;3.60;3.28;;;;;;;;;;4955377;28;20447;-77
2022/10/16 08:25:38;;;;;;;7.93;3.47;;;;;;;;;;4974719;28;20026;-76
2022/10/16 08:28:08;;;;;;;8.45;3.13;;;;;;;;;;4958928;28;20486;-76
2022/10/16 08:30:34;;;;;;;5.43;2.97;;;;;;;;;;4958583;28;20087;-76
2022/10/16 08:33:00;;;;;;;3.40;2.72;;;;;;;;;;4958330;28;20026;-77
2022/10/16 08:35:26;;;;;;;4.32;3.55;;;;;;;;;;4974451;28;20030;-76
2022/10/16 08:37:53;;;;;;;3.63;3.30;;;;;;;;;;4974142;28;20088;-77
2022/10/16 08:40:32;;;;;;;6.38;3.85;;;;;;;;;;4991154;28;20054;-76
2022/10/16 08:43:21;;;;;;;9.60;3.45;;;;;;;;;;4974775;28;20033;-76
2022/10/16 08:45:59;;;;;;;4.75;2.78;;;;;;;;;;4992850;28;20036;-77
2022/10/16 08:48:46;;;;;;;6.10;2.95;;;;;;;;;;4974775;28;20030;-76
2022/10/16 08:51:24;;;;;;;5.40;3.38;;;;;;;;;;4974055;28;20034;-77
2022/10/16 08:54:03;;;;;;;5.80;2.90;;;;;;;;;;4991609;28;20112;-76
2022/10/16 08:56:29;;;;;;;4.07;2.80;;;;;;;;;;4973932;28;20030;-77
2022/10/16 08:58:54;;;;;;;5.00;3.10;;;;;;;;;;4974064;28;20080;-77
2022/10/16 09:01:23;;;;;;;5.10;3.67;;;;;;;;;;4991315;28;20101;-77
2022/10/16 09:04:22;;;;;;;4.00;3.10;;;;;;;;;;4973577;28;20168;-78
2022/10/16 09:06:56;;;;;;;4.78;3.53;;;;;;;;;;4974076;28;20034;-76
2022/10/16 09:09:36;;;;;;;6.32;3.20;;;;;;;;;;4974751;28;20061;-76
2022/10/16 09:12:25;;;;;;;6.95;2.83;;;;;;;;;;4974744;28;20426;-77
2022/10/16 09:15:13;;;;;;;6.43;2.88;;;;;;;;;;4974157;28;20030;-77
2022/10/16 09:17:48;;;;;;;3.38;2.58;;;;;;;;;;4974900;28;20033;-78
2022/10/16 09:20:42;;;;;;;3.80;2.42;;;;;;;;;;4974843;28;20026;-75
2022/10/16 09:23:14;;;;;;;5.10;2.85;;;;;;;;;;4975603;28;20100;-80
2022/10/16 09:25:44;;;;;;;9.73;3.50;;;;;;;;;;4995762;28;20026;-80
2022/10/16 09:28:10;;;;;;;6.10;2.83;;;;;;;;;;4977186;28;20054;-81
2022/10/16 09:30:37;;;;;;;4.00;3.25;;;;;;;;;;4977239;28;20030;-83
2022/10/16 09:33:04;;;;;;;3.60;3.10;;;;;;;;;;4959142;28;20052;-81
2022/10/16 09:35:39;;;;;;;7.97;4.00;;;;;;;;;;4975045;28;20053;-84
2022/10/16 09:38:06;;;;;;;4.43;3.30;;;;;;;;;;4974702;28;20447;-80
2022/10/16 09:40:37;;;;;;;13.43;3.67;;;;;;;;;;4977725;28;20030;-80
2022/10/16 09:43:28;;;;;;;;;;;;;;;;;;4974822;28;20109;-80
2022/10/16 09:46:01;;;;;;;15.20;3.40;;;;;;;;;;4948564;28;19963;-84
2022/10/16 09:48:44;;;;;;;8.75;3.20;;;;;;;;;;4991801;28;20038;-81
2022/10/16 09:51:24;;;;;;;7.22;3.28;;;;;;;;;;4974188;28;20038;-77
2022/10/16 09:53:56;;;;;;;4.87;3.47;;;;;;;;;;4996744;28;20034;-81
2022/10/16 09:56:24;;;;;;;4.15;2.42;;;;;;;;;;4995967;28;20030;-81
2022/10/16 09:58:52;;;;;;;2.80;2.50;;;;;;;;;;4979962;28;20450;-80
2022/10/16 10:01:19;;;;;;;3.25;2.42;;;;;;;;;;4973696;28;20070;-81
2022/10/16 10:03:46;;;;;;;4.93;2.30;;;;;;;;;;4990844;28;20046;-81
2022/10/16 10:06:26;;;;;;;9.48;2.97;;;;;;;;;;4989199;28;20023;-80
2022/10/16 10:08:58;;;;;;;6.63;2.20;;;;;;;;;;4985356;28;20126;-82
2022/10/16 10:11:41;;;;;;;4.57;2.70;;;;;;;;;;4979765;28;20080;-81
2022/10/16 10:14:33;;;;;;;7.07;2.72;;;;;;;;;;4996707;28;20026;-83
2022/10/16 10:17:25;;;;;;;2.20;1.98;;;;;;;;;;4978080;28;20046;-81
2022/10/16 10:19:52;;;;;;;2.38;2.13;;;;;;;;;;4975008;28;20046;-81
2022/10/16 10:22:27;;;;;;;2.55;2.30;;;;;;;;;;4976992;28;20606;-81
2022/10/16 10:24:56;;;;;;;6.00;2.28;;;;;;;;;;4979961;28;20112;-83
2022/10/16 10:27:48;;;;;;;4.30;1.92;;;;;;;;;;4998143;28;20057;-81
2022/10/16 10:30:35;;;;;;;4.05;2.08;;;;;;;;;;4949741;28;20050;-81
2022/10/16 10:33:41;;;;;;;2.40;1.98;;;;;;;;;;4977646;28;20123;-82
2022/10/16 10:36:19;;;;;;;4.10;2.03;;;;;;;;;;4977262;28;20033;-84
2022/10/16 10:39:01;;;;;;;2.70;2.00;;;;;;;;;;4995209;28;20114;-77
2022/10/16 10:41:39;;;;;;;2.50;2.13;;;;;;;;;;4976900;28;20026;-78
2022/10/16 10:44:16;;;;;;;2.63;2.10;;;;;;;;;;4977640;28;20030;-78
2022/10/16 10:46:53;;;;;;;4.82;2.30;;;;;;;;;;4977315;28;20022;-78
2022/10/16 10:49:37;;;;;;;8.05;2.60;;;;;;;;;;4977124;28;20018;-78
2022/10/16 10:52:09;;;;;;;3.05;2.17;;;;;;;;;;4977343;28;20030;-78
2022/10/16 10:55:22;;;;;;;3.63;2.13;;;;;;;;;;4994489;28;20022;-77
2022/10/16 10:58:26;;;;;;;4.28;2.50;;;;;;;;;;4959946;28;20039;-78
2022/10/16 11:00:54;;;;;;;5.85;2.03;;;;;;;;;;4913061;28;20039;-76
2022/10/16 11:03:45;;;;;;;4.63;2.05;;;;;;;;;;4992992;28;20022;-78
2022/10/16 11:06:17;;;;;;;4.25;2.00;;;;;;;;;;4992843;28;20077;-78
2022/10/16 11:08:51;;;;;;;6.35;3.00;;;;;;;;;;4993843;28;20022;-77
2022/10/16 11:11:43;;;;;;;2.70;2.20;;;;;;;;;;4993430;28;20105;-76
2022/10/16 11:14:31;;;;;;;2.33;1.90;;;;;;;;;;4975861;28;20364;-77
2022/10/16 11:17:21;;;;;;;2.88;1.77;;;;;;;;;;4976085;28;20554;-78
2022/10/16 11:20:15;;;;;;;4.45;1.90;;;;;;;;;;4975287;28;20045;-77
2022/10/16 11:23:05;;;;;;;5.28;2.30;;;;;;;;;;4975419;28;20145;-78
2022/10/16 11:25:32;;;;;;;5.90;2.33;;;;;;;;;;4975353;28;20023;-77
2022/10/16 11:28:09;;;;;;;3.80;1.80;;;;;;;;;;4975505;28;20034;-78
2022/10/16 11:30:50;;;;;;;3.72;1.90;;;;;;;;;;4974990;28;20105;-78
2022/10/16 11:33:18;;;;;;;4.97;1.95;;;;;;;;;;4975224;28;20057;-76
2022/10/16 11:36:11;;;;;;;5.63;2.35;;;;;;;;;;4992868;28;20118;-77
2022/10/16 11:38:48;;;;;;;4.72;2.60;;;;;;;;;;4974607;28;20038;-78
2022/10/16 11:41:24;;;;;;;2.53;1.40;;;;;;;;;;4975173;28;20033;-77
2022/10/16 11:44:28;;;;;;;2.55;1.40;;;;;;;;;;4993119;28;20034;-78
2022/10/16 11:47:14;;;;;;;2.90;1.33;;;;;;;;;;4943323;28;20149;-79
2022/10/16 11:49:41;;;;;;;2.00;1.80;;;;;;;;;;4992953;28;20030;-77
2022/10/16 11:52:28;;;;;;;4.40;1.17;;;;;;;;;;4975248;28;20029;-78
2022/10/16 11:55:09;;;;;;;0.82;0.77;;;;;;;;;;4960303;28;20487;-78
2022/10/16 11:57:43;;;;;;;;;;;;;;;;;;4975220;28;20042;-77
2022/10/16 12:00:21;;;;;;;1.17;1.00;;;;;;;;;;4975100;28;19910;-77
2022/10/16 12:03:01;;;;;;;4.63;1.50;;;;;;;;;;4992732;28;20493;-77
2022/10/16 12:05:46;;;;;;;4.30;1.77;;;;;;;;;;4975194;28;20165;-77
2022/10/16 12:08:16;;;;;;;3.10;2.00;;;;;;;;;;4976321;28;20464;-77
2022/10/16 12:10:45;;;;;;;3.83;1.42;;;;;;;;;;4975601;28;20026;-78
2022/10/16 12:13:32;;;;;;;3.45;2.05;;;;;;;;;;4975125;28;20037;-78
2022/10/16 12:16:22;;;;;;;1.88;1.60;;;;;;;;;;4990842;28;20026;-77
2022/10/16 12:18:49;;;;;;;2.53;1.75;;;;;;;;;;4975666;28;20042;-78
2022/10/16 12:21:18;;;;;;;3.80;2.00;;;;;;;;;;4975460;28;20096;-77
2022/10/16 12:23:51;;;;;;;4.95;2.00;;;;;;;;;;4992738;28;20069;-77
2022/10/16 12:26:29;;;;;;;3.47;2.17;;;;;;;;;;4956021;28;20097;-78
2022/10/16 12:28:57;;;;;;;2.90;1.80;;;;;;;;;;4955620;28;20066;-78
2022/10/16 12:31:24;;;;;;;4.05;1.50;;;;;;;;;;4955553;28;20034;-78
2022/10/16 12:33:59;;;;;;;2.35;1.48;;;;;;;;;;4955541;28;20077;-76
2022/10/16 12:36:34;;;;;;;4.60;1.92;;;;;;;;;;4955320;28;20019;-77
2022/10/16 12:39:00;;;;;;;1.73;1.48;;;;;;;;;;4955459;28;20031;-77
2022/10/16 12:41:39;;;;;;;1.60;1.50;;;;;;;;;;4972378;28;20038;-77
2022/10/16 12:44:05;;;;;;;1.73;1.30;;;;;;;;;;4955700;28;20023;-77
2022/10/16 12:46:32;;;;;;;2.17;1.40;;;;;;;;;;4971408;28;20027;-77
2022/10/16 12:49:18;;;;;;;3.33;1.90;;;;;;;;;;4972583;28;20030;-79
2022/10/16 12:51:44;;;;;;;3.70;1.10;;;;;;;;;;4954911;28;20031;-78
2022/10/16 12:54:18;;;;;;;4.00;1.38;;;;;;;;;;4955008;28;20027;-77
2022/10/16 12:56:57;;;;;;;9.02;1.50;;;;;;;;;;4972222;28;20035;-78
2022/10/16 12:59:42;;;;;;;9.30;2.53;;;;;;;;;;4954628;28;20571;-77
2022/10/16 13:02:48;;;;;;;2.75;1.42;;;;;;;;;;4972019;28;20089;-78
2022/10/16 13:05:19;;;;;;;3.25;1.42;;;;;;;;;;4954789;28;20074;-78
2022/10/16 13:07:53;;;;;;;3.53;1.60;;;;;;;;;;4954776;28;20042;-78
2022/10/16 13:10:59;;;;;;;5.35;2.17;;;;;;;;;;4972565;28;20022;-77
2022/10/16 13:13:56;;;;;;;5.47;1.80;;;;;;;;;;4971029;28;20479;-77
2022/10/16 13:16:44;;;;;;;2.13;1.42;;;;;;;;;;4954685;28;20517;-78
2022/10/16 13:19:15;;;;;;;7.47;1.27;;;;;;;;;;4954559;28;20038;-77
2022/10/16 13:22:06;;;;;;;5.47;1.27;;;;;;;;;;4953994;28;20641;-77
2022/10/16 13:25:09;;;;;;;3.40;1.50;;;;;;;;;;4973731;28;20046;-79
2022/10/16 13:27:44;;;;;;;5.78;1.33;;;;;;;;;;4972954;28;20049;-77
2022/10/16 13:30:15;;;;;;;1.73;1.50;;;;;;;;;;4991344;28;20430;-77
2022/10/16 13:32:46;;;;;;;5.20;1.40;;;;;;;;;;4973275;28;20030;-77
2022/10/16 13:35:28;;;;;;;2.40;1.52;;;;;;;;;;4957818;28;20081;-77
2022/10/16 13:38:05;;;;;;;3.88;1.60;;;;;;;;;;4973373;28;20394;-78
2022/10/16 13:40:31;;;;;;;2.00;1.70;;;;;;;;;;4990703;28;20113;-78
2022/10/16 13:42:59;;;;;;;3.67;1.73;;;;;;;;;;4973293;28;20323;-77
2022/10/16 13:45:25;;;;;;;2.08;1.63;;;;;;;;;;4973507;28;20030;-78
2022/10/16 13:48:05;;;;;;;8.25;2.20;;;;;;;;;;4973204;28;20164;-78
2022/10/16 13:50:30;;;;;;;5.20;1.75;;;;;;;;;;4972874;28;20030;-79
2022/10/16 13:53:07;;;;;;;2.72;1.77;;;;;;;;;;4957307;28;20049;-78
2022/10/16 13:55:33;;;;;;;1.77;1.33;;;;;;;;;;4973352;28;20027;-80
2022/10/16 13:58:13;;;;;;;4.75;2.00;;;;;;;;;;4990751;28;20038;-79
2022/10/16 14:00:38;;;;;;;6.75;1.60;;;;;;;;;;4973155;28;20423;-78
2022/10/16 14:03:14;;;;;;;7.88;2.30;;;;;;;;;;4990753;28;20034;-76
2022/10/16 14:05:51;;;;;;;10.30;2.97;;;;;;;;;;4990720;28;20023;-80
2022/10/16 14:08:17;;;;;;;3.08;1.60;;;;;;;;;;4956823;28;20489;-79
2022/10/16 14:10:47;;;;;;;6.47;2.40;;;;;;;;;;4957322;28;20026;-79
2022/10/16 14:13:18;;;;;;;3.92;1.77;;;;;;;;;;4973757;28;20030;-77
2022/10/16 14:15:49;;;;;;;3.35;2.20;;;;;;;;;;4990692;28;20027;-77
2022/10/16 14:18:22;;;;;;;6.07;2.63;;;;;;;;;;4991719;28;20164;-77
2022/10/16 14:20:48;;;;;;;5.70;2.30;;;;;;;;;;4973644;28;20034;-78
2022/10/16 14:23:28;;;;;;;2.60;1.75;;;;;;;;;;4972900;28;20503;-79
2022/10/16 14:25:54;;;;;;;6.78;2.75;;;;;;;;;;4973251;28;20065;-78
2022/10/16 14:28:22;;;;;;;5.13;1.88;;;;;;;;;;4990079;28;20462;-76
2022/10/16 14:30:59;;;;;;;3.22;1.60;;;;;;;;;;4972568;28;20050;-78
2022/10/16 14:33:33;;;;;;;5.25;2.90;;;;;;;;;;4973071;28;20080;-77
2022/10/16 14:36:16;;;;;;;7.15;3.38;;;;;;;;;;4972915;28;20050;-76
2022/10/16 14:39:19;;;;;;;7.15;2.92;;;;;;;;;;4973184;28;20030;-77
2022/10/16 14:41:48;;;;;;;9.00;3.47;;;;;;;;;;4898690;29;20763;-78
2022/10/16 14:44:14;;;;;;;12.73;4.30;;;;;;;;;;4967386;28;20034;-77
2022/10/16 14:46:43;;;;;;;10.27;4.43;;;;;;;;;;4994243;28;20036;-79
2022/10/16 14:49:09;;;;;;;12.38;4.95;;;;;;;;;;4976578;28;20030;-79
2022/10/16 14:51:34;;;;;;;18.98;11.35;;;;;;;;;;4976331;28;20034;-77
2022/10/16 14:54:01;;;;;;;18.02;7.15;;;;;;;;;;4976191;28;20029;-76
2022/10/16 14:56:50;;;;;;;13.20;6.03;;;;;;;;;;4975891;28;20085;-78
2022/10/16 14:59:28;;;;;;;9.40;5.35;;;;;;;;;;4975407;28;20045;-78
2022/10/16 15:01:55;;;;;;;8.35;4.45;;;;;;;;;;4960244;28;20031;-77
2022/10/16 15:04:21;;;;;;;13.32;6.05;;;;;;;;;;4943747;28;20030;-78
2022/10/16 15:06:46;;;;;;;11.60;5.45;;;;;;;;;;4976016;28;20040;-77
2022/10/16 15:09:12;;;;;;;13.35;5.75;;;;;;;;;;4976026;28;20113;-77